Time;durP1;ratioP1;P1;durP2;ratioP2;P2;SDS_P1;SDS_P2;PMS_P1;PMS_P2;Temp;Humidity;BMP_temperature;BMP_pressure;BME280_temperature;BME280_humidity;BME280_pressure;Samples;Min_cycle;Max_cycle;Signal;HPM_P1;HPM_P2
2023/08/30 00:01:13;;;;;;;3.23;2.10;;;;;;;;;;5011338;28;20243;-81
2023/08/30 00:03:40;;;;;;;2.40;2.20;;;;;;;;;;5003761;28;20206;-81
2023/08/30 00:06:07;;;;;;;2.00;1.90;;;;;;;;;;5003635;28;20235;-80
2023/08/30 00:08:34;;;;;;;2.10;2.00;;;;;;;;;;5004506;28;20212;-81
2023/08/30 00:11:04;;;;;;;3.60;2.60;;;;;;;;;;5011179;28;20239;-80
2023/08/30 00:13:32;;;;;;;2.50;2.30;;;;;;;;;;5012131;28;20213;-80
2023/08/30 00:15:59;;;;;;;2.63;2.20;;;;;;;;;;5011572;28;20234;-80
2023/08/30 00:18:26;;;;;;;2.33;2.17;;;;;;;;;;5003870;28;20220;-81
2023/08/30 00:20:53;;;;;;;3.27;2.20;;;;;;;;;;4999740;28;20236;-80
2023/08/30 00:23:20;;;;;;;2.40;2.30;;;;;;;;;;5010551;28;20234;-80
2023/08/30 00:25:47;;;;;;;2.53;2.37;;;;;;;;;;5011461;28;20322;-80
2023/08/30 00:28:15;;;;;;;3.00;2.33;;;;;;;;;;5011893;28;20219;-81
2023/08/30 00:30:42;;;;;;;2.87;2.50;;;;;;;;;;5006356;28;20239;-81
2023/08/30 00:33:09;;;;;;;3.60;2.50;;;;;;;;;;5000597;28;20205;-80
2023/08/30 00:35:36;;;;;;;2.63;2.47;;;;;;;;;;5003155;28;20227;-81
2023/08/30 00:38:04;;;;;;;3.70;2.40;;;;;;;;;;5011652;28;20232;-81
2023/08/30 00:40:38;;;;;;;3.23;2.30;;;;;;;;;;5010961;28;20239;-81
2023/08/30 00:43:05;;;;;;;2.93;2.73;;;;;;;;;;5011722;28;20692;-81
2023/08/30 00:45:34;;;;;;;4.13;2.53;;;;;;;;;;5003134;28;20235;-81
2023/08/30 00:48:01;;;;;;;6.43;3.30;;;;;;;;;;5003760;28;20574;-81
2023/08/30 00:50:28;;;;;;;2.43;2.33;;;;;;;;;;5000036;28;20240;-81
2023/08/30 00:52:55;;;;;;;2.73;2.53;;;;;;;;;;5000160;28;20208;-81
2023/08/30 00:55:22;;;;;;;2.90;2.67;;;;;;;;;;5012981;28;20235;-81
2023/08/30 00:57:50;;;;;;;2.80;2.60;;;;;;;;;;5015052;28;20227;-81
2023/08/30 01:00:17;;;;;;;2.50;2.30;;;;;;;;;;5013104;28;20204;-80
2023/08/30 01:02:46;;;;;;;2.60;2.40;;;;;;;;;;5003473;28;20208;-81
2023/08/30 01:05:14;;;;;;;2.50;2.40;;;;;;;;;;5011031;28;20199;-81
2023/08/30 01:07:41;;;;;;;3.87;2.53;;;;;;;;;;5005103;28;20669;-81
2023/08/30 01:10:09;;;;;;;2.73;2.43;;;;;;;;;;5015872;28;20212;-81
2023/08/30 01:12:41;;;;;;;3.23;3.00;;;;;;;;;;5006825;28;20245;-81
2023/08/30 01:15:10;;;;;;;3.00;2.80;;;;;;;;;;5006217;28;20203;-81
2023/08/30 01:17:38;;;;;;;3.40;2.80;;;;;;;;;;5010174;28;20596;-81
2023/08/30 01:20:13;;;;;;;3.40;2.93;;;;;;;;;;5013978;28;20214;-81
2023/08/30 01:22:41;;;;;;;2.70;2.50;;;;;;;;;;4998738;28;20201;-81
2023/08/30 01:25:17;;;;;;;3.10;2.80;;;;;;;;;;5013741;28;20208;-81
2023/08/30 01:27:47;;;;;;;2.83;2.63;;;;;;;;;;5009990;28;20188;-81
2023/08/30 01:30:15;;;;;;;2.60;2.40;;;;;;;;;;5002852;28;20201;-81
2023/08/30 01:32:43;;;;;;;6.63;3.13;;;;;;;;;;5014113;28;20688;-81
2023/08/30 01:35:10;;;;;;;3.00;2.70;;;;;;;;;;5005710;28;20242;-82
2023/08/30 01:37:38;;;;;;;2.87;2.67;;;;;;;;;;5002523;28;20220;-81
2023/08/30 01:40:06;;;;;;;3.00;2.70;;;;;;;;;;5002272;28;20208;-81
2023/08/30 01:42:34;;;;;;;3.00;2.80;;;;;;;;;;5005748;28;20305;-81
2023/08/30 01:45:03;;;;;;;3.30;3.00;;;;;;;;;;5005667;28;20203;-82
2023/08/30 01:47:31;;;;;;;3.80;2.57;;;;;;;;;;5013920;28;20258;-81
2023/08/30 01:49:58;;;;;;;2.90;2.70;;;;;;;;;;5013864;28;20203;-81
2023/08/30 01:52:26;;;;;;;6.10;3.00;;;;;;;;;;5005499;28;20706;-81
2023/08/30 01:54:53;;;;;;;3.03;2.83;;;;;;;;;;5005631;28;20246;-80
2023/08/30 01:57:21;;;;;;;2.97;2.77;;;;;;;;;;5003950;28;20231;-81
2023/08/30 01:59:48;;;;;;;3.30;3.10;;;;;;;;;;5007196;28;20238;-81
2023/08/30 02:02:16;;;;;;;3.00;2.80;;;;;;;;;;5013048;28;20234;-81
2023/08/30 02:04:43;;;;;;;3.43;2.73;;;;;;;;;;5013683;28;20203;-81
2023/08/30 02:07:15;;;;;;;4.13;2.97;;;;;;;;;;5005434;28;20234;-81
2023/08/30 02:09:51;;;;;;;3.07;2.87;;;;;;;;;;5002369;28;20188;-81
2023/08/30 02:12:19;;;;;;;3.03;2.83;;;;;;;;;;5002341;28;20310;-81
2023/08/30 02:14:47;;;;;;;2.90;2.70;;;;;;;;;;5005122;28;20662;-81
2023/08/30 02:17:17;;;;;;;3.63;3.13;;;;;;;;;;5004541;28;20724;-81
2023/08/30 02:19:44;;;;;;;3.87;3.10;;;;;;;;;;5001701;28;20227;-82
2023/08/30 02:22:11;;;;;;;3.40;3.10;;;;;;;;;;5001214;28;20239;-81
2023/08/30 02:24:39;;;;;;;3.40;3.10;;;;;;;;;;5001790;28;20573;-81
2023/08/30 02:27:06;;;;;;;3.70;3.40;;;;;;;;;;5008334;28;20238;-81
2023/08/30 02:29:33;;;;;;;4.10;3.20;;;;;;;;;;5005112;28;20203;-81
2023/08/30 02:32:00;;;;;;;3.10;2.90;;;;;;;;;;5012415;28;20242;-81
2023/08/30 02:34:29;;;;;;;4.33;3.27;;;;;;;;;;5005155;28;20215;-81
2023/08/30 02:36:56;;;;;;;3.60;3.30;;;;;;;;;;5012678;28;20759;-81
2023/08/30 02:39:23;;;;;;;4.60;3.40;;;;;;;;;;5012512;28;20773;-80
2023/08/30 02:41:50;;;;;;;3.10;2.90;;;;;;;;;;5013327;28;20259;-80
2023/08/30 02:44:17;;;;;;;3.23;3.00;;;;;;;;;;5012544;28;20293;-80
2023/08/30 02:46:45;;;;;;;3.57;3.27;;;;;;;;;;5001023;28;20228;-80
2023/08/30 02:49:12;;;;;;;3.60;3.07;;;;;;;;;;5001520;28;20200;-81
2023/08/30 02:51:40;;;;;;;3.53;3.27;;;;;;;;;;5008485;28;20232;-81
2023/08/30 02:54:07;;;;;;;3.60;3.30;;;;;;;;;;5008056;28;20222;-81
2023/08/30 02:56:34;;;;;;;3.67;3.33;;;;;;;;;;5012171;28;20235;-81
2023/08/30 02:59:01;;;;;;;3.60;3.30;;;;;;;;;;5004640;28;20216;-81
2023/08/30 03:01:28;;;;;;;3.60;3.30;;;;;;;;;;5002141;28;20236;-82
2023/08/30 03:03:55;;;;;;;3.43;3.23;;;;;;;;;;5001058;28;20278;-81
2023/08/30 03:06:22;;;;;;;3.50;3.20;;;;;;;;;;5001714;28;20228;-81
2023/08/30 03:08:51;;;;;;;3.50;3.20;;;;;;;;;;5008210;28;20203;-81
2023/08/30 03:11:18;;;;;;;4.20;3.73;;;;;;;;;;5000663;28;20239;-81
2023/08/30 03:13:45;;;;;;;3.50;3.20;;;;;;;;;;5008520;28;20200;-81
2023/08/30 03:16:12;;;;;;;3.87;3.57;;;;;;;;;;5000064;28;20255;-80
2023/08/30 03:18:40;;;;;;;4.00;3.70;;;;;;;;;;5012238;28;20255;-80
2023/08/30 03:21:07;;;;;;;3.97;3.60;;;;;;;;;;5003495;28;20235;-80
2023/08/30 03:23:35;;;;;;;3.90;3.60;;;;;;;;;;5001980;28;20199;-81
2023/08/30 03:26:08;;;;;;;4.07;3.30;;;;;;;;;;5000402;28;20235;-81
2023/08/30 03:28:35;;;;;;;4.43;3.50;;;;;;;;;;5003331;28;20197;-80
2023/08/30 03:31:03;;;;;;;4.17;3.87;;;;;;;;;;5003495;28;20231;-81
2023/08/30 03:33:30;;;;;;;4.63;3.67;;;;;;;;;;5004357;28;20231;-81
2023/08/30 03:35:59;;;;;;;4.00;3.70;;;;;;;;;;5003580;28;20588;-81
2023/08/30 03:38:26;;;;;;;6.97;4.10;;;;;;;;;;5010969;28;20227;-80
2023/08/30 03:40:54;;;;;;;6.03;4.27;;;;;;;;;;4999919;28;20599;-82
2023/08/30 03:43:23;;;;;;;4.97;4.27;;;;;;;;;;5000692;28;20207;-81
2023/08/30 03:45:50;;;;;;;4.33;3.93;;;;;;;;;;5000290;28;20232;-81
2023/08/30 03:48:17;;;;;;;6.53;4.10;;;;;;;;;;5001023;28;20196;-81
2023/08/30 03:50:44;;;;;;;4.73;4.33;;;;;;;;;;5009695;28;20235;-81
2023/08/30 03:53:11;;;;;;;4.50;4.10;;;;;;;;;;5003873;28;20238;-81
2023/08/30 03:55:38;;;;;;;4.33;3.80;;;;;;;;;;5000920;28;20235;-81
2023/08/30 03:58:05;;;;;;;5.83;4.40;;;;;;;;;;5000585;28;20205;-81
2023/08/30 04:00:34;;;;;;;4.80;4.40;;;;;;;;;;5001569;28;20262;-81
2023/08/30 04:03:01;;;;;;;7.00;4.63;;;;;;;;;;5011704;28;20207;-81
2023/08/30 04:05:28;;;;;;;4.90;4.50;;;;;;;;;;5040886;23;20235;-86
2023/08/30 04:07:55;;;;;;;5.53;4.27;;;;;;;;;;5071322;28;20216;-86
2023/08/30 04:10:22;;;;;;;4.90;4.50;;;;;;;;;;5070205;28;20225;-86
2023/08/30 04:12:49;;;;;;;5.63;5.03;;;;;;;;;;5066765;28;20206;-86
2023/08/30 04:15:16;;;;;;;4.90;4.50;;;;;;;;;;5055510;28;20757;-87
2023/08/30 04:17:45;;;;;;;5.93;4.80;;;;;;;;;;5031063;28;20668;-87
2023/08/30 04:20:12;;;;;;;6.53;4.60;;;;;;;;;;5046014;28;20222;-86
2023/08/30 04:22:39;;;;;;;4.70;4.30;;;;;;;;;;5040107;28;20211;-87
2023/08/30 04:25:09;;;;;;;4.73;4.33;;;;;;;;;;5037607;28;20286;-87
2023/08/30 04:27:36;;;;;;;5.00;4.50;;;;;;;;;;5040194;28;20211;-86
2023/08/30 04:30:03;;;;;;;5.27;4.60;;;;;;;;;;5039196;28;20297;-86
2023/08/30 04:32:30;;;;;;;7.07;5.63;;;;;;;;;;5042581;28;20234;-86
2023/08/30 04:34:58;;;;;;;7.63;4.40;;;;;;;;;;5045914;28;20206;-86
2023/08/30 04:37:26;;;;;;;4.97;4.30;;;;;;;;;;5054285;28;20213;-86
2023/08/30 04:39:53;;;;;;;5.10;4.60;;;;;;;;;;5049878;28;20254;-87
2023/08/30 04:42:20;;;;;;;4.90;4.40;;;;;;;;;;5045074;28;20225;-86
2023/08/30 04:44:47;;;;;;;6.33;4.43;;;;;;;;;;5037848;28;20676;-87
2023/08/30 04:47:14;;;;;;;4.57;4.17;;;;;;;;;;5038237;28;20241;-86
2023/08/30 04:49:41;;;;;;;4.20;3.87;;;;;;;;;;5033681;28;20211;-86
2023/08/30 04:52:10;;;;;;;5.10;3.60;;;;;;;;;;5039958;28;20230;-87
2023/08/30 04:54:37;;;;;;;3.80;3.40;;;;;;;;;;5037633;28;20210;-87
2023/08/30 04:57:04;;;;;;;4.03;3.63;;;;;;;;;;5053495;28;20711;-86
2023/08/30 04:59:31;;;;;;;6.40;3.77;;;;;;;;;;5053756;28;20723;-86
2023/08/30 05:01:58;;;;;;;4.43;3.80;;;;;;;;;;5048560;28;20231;-87
2023/08/30 05:04:25;;;;;;;5.03;4.53;;;;;;;;;;5050759;28;20213;-86
2023/08/30 05:06:52;;;;;;;6.13;4.33;;;;;;;;;;5053383;28;20226;-86
2023/08/30 05:09:24;;;;;;;4.80;4.27;;;;;;;;;;5038059;28;20214;-86
2023/08/30 05:11:51;;;;;;;4.67;4.37;;;;;;;;;;5041602;28;21013;-88
2023/08/30 05:14:18;;;;;;;4.70;4.30;;;;;;;;;;5049290;28;20210;-89
2023/08/30 05:16:45;;;;;;;5.00;4.50;;;;;;;;;;5033599;28;20230;-90
2023/08/30 05:19:12;;;;;;;4.43;4.13;;;;;;;;;;5033948;28;20226;-89
2023/08/30 05:21:40;;;;;;;4.83;4.43;;;;;;;;;;5043529;28;20242;-89
2023/08/30 05:24:07;;;;;;;7.00;5.00;;;;;;;;;;5045564;28;20289;-90
2023/08/30 05:26:35;;;;;;;4.90;4.50;;;;;;;;;;5034669;28;20712;-88
2023/08/30 05:29:02;;;;;;;4.10;3.77;;;;;;;;;;5047202;28;20206;-89
2023/08/30 05:31:29;;;;;;;5.40;4.63;;;;;;;;;;5045881;28;20231;-89
2023/08/30 05:33:56;;;;;;;5.93;5.43;;;;;;;;;;5049631;28;20214;-89
2023/08/30 05:36:23;;;;;;;6.47;5.07;;;;;;;;;;5041885;28;20230;-89
2023/08/30 05:38:50;;;;;;;6.20;5.20;;;;;;;;;;5041421;28;20230;-89
2023/08/30 05:41:18;;;;;;;7.47;5.30;;;;;;;;;;5044989;28;20586;-89
2023/08/30 05:43:46;;;;;;;5.93;5.43;;;;;;;;;;5044313;28;20699;-89
2023/08/30 05:46:14;;;;;;;7.40;5.40;;;;;;;;;;5052606;28;20230;-89
2023/08/30 05:48:42;;;;;;;7.30;5.30;;;;;;;;;;5044605;28;20309;-89
2023/08/30 05:51:09;;;;;;;7.07;5.93;;;;;;;;;;5046712;28;20233;-89
2023/08/30 05:53:36;;;;;;;8.60;6.10;;;;;;;;;;5049284;28;20217;-89
2023/08/30 05:56:03;;;;;;;7.10;6.40;;;;;;;;;;5043012;28;20241;-90
2023/08/30 05:58:30;;;;;;;11.30;6.47;;;;;;;;;;5044462;28;20222;-87
2023/08/30 06:00:59;;;;;;;7.20;6.50;;;;;;;;;;5047728;28;20234;-89
2023/08/30 06:03:26;;;;;;;9.43;6.80;;;;;;;;;;5047394;28;20202;-89
2023/08/30 06:05:54;;;;;;;7.43;6.73;;;;;;;;;;5043972;28;20230;-89
2023/08/30 06:08:21;;;;;;;6.93;6.20;;;;;;;;;;5051979;28;20202;-90
2023/08/30 06:10:48;;;;;;;9.63;7.50;;;;;;;;;;5048988;28;20812;-89
2023/08/30 06:13:15;;;;;;;7.97;6.83;;;;;;;;;;5041913;28;20217;-88
2023/08/30 06:15:44;;;;;;;8.17;7.37;;;;;;;;;;5045210;28;20246;-89
2023/08/30 06:18:13;;;;;;;8.23;7.30;;;;;;;;;;5053425;28;20202;-90
2023/08/30 06:20:41;;;;;;;9.27;6.93;;;;;;;;;;5051779;28;20718;-89
2023/08/30 06:23:10;;;;;;;8.73;7.83;;;;;;;;;;5052432;28;20210;-89
2023/08/30 06:25:37;;;;;;;7.87;7.07;;;;;;;;;;5042307;28;20238;-89
2023/08/30 06:28:04;;;;;;;10.10;7.37;;;;;;;;;;5037648;28;20668;-89
2023/08/30 06:30:31;;;;;;;8.77;7.80;;;;;;;;;;5043026;28;20258;-89
2023/08/30 06:32:58;;;;;;;10.07;7.97;;;;;;;;;;5044956;28;20210;-88
2023/08/30 06:35:27;;;;;;;9.73;8.60;;;;;;;;;;5051798;28;20254;-89
2023/08/30 06:37:55;;;;;;;9.47;8.00;;;;;;;;;;5034923;28;20210;-89
2023/08/30 06:40:22;;;;;;;10.13;8.77;;;;;;;;;;5042667;28;20257;-88
2023/08/30 06:42:49;;;;;;;11.73;8.17;;;;;;;;;;5037898;28;20708;-88
2023/08/30 06:45:17;;;;;;;9.93;8.03;;;;;;;;;;5042884;28;20240;-87
2023/08/30 06:47:44;;;;;;;10.50;7.47;;;;;;;;;;5050979;28;20724;-88
2023/08/30 06:50:11;;;;;;;10.93;8.07;;;;;;;;;;5036980;28;20210;-87
2023/08/30 06:52:39;;;;;;;9.90;7.87;;;;;;;;;;5040859;28;20213;-87
2023/08/30 06:55:07;;;;;;;9.40;6.80;;;;;;;;;;5039165;28;20225;-89
2023/08/30 06:57:34;;;;;;;7.40;6.70;;;;;;;;;;5040325;28;20631;-89
2023/08/30 07:00:07;;;;;;;7.73;6.93;;;;;;;;;;5037909;28;20228;-89
2023/08/30 07:02:35;;;;;;;7.43;6.73;;;;;;;;;;5041126;28;20213;-88
2023/08/30 07:05:04;;;;;;;8.37;7.57;;;;;;;;;;5043575;28;20202;-88
2023/08/30 07:07:31;;;;;;;8.77;6.97;;;;;;;;;;5044269;28;20225;-88
2023/08/30 07:10:00;;;;;;;8.17;7.30;;;;;;;;;;5038613;28;20241;-90
2023/08/30 07:12:27;;;;;;;8.43;7.53;;;;;;;;;;5038936;28;20238;-88
2023/08/30 07:14:54;;;;;;;9.93;7.30;;;;;;;;;;5053641;28;20221;-89
2023/08/30 07:17:21;;;;;;;9.07;7.67;;;;;;;;;;5035524;28;20227;-89
2023/08/30 07:19:48;;;;;;;13.93;8.63;;;;;;;;;;5031560;28;20250;-89
2023/08/30 07:22:16;;;;;;;9.73;8.73;;;;;;;;;;5044064;28;20607;-89
2023/08/30 07:24:43;;;;;;;8.87;8.00;;;;;;;;;;5034619;28;20613;-90
2023/08/30 07:27:12;;;;;;;9.63;8.27;;;;;;;;;;5050422;28;20608;-89
2023/08/30 07:29:40;;;;;;;10.23;7.97;;;;;;;;;;5033235;28;20676;-89
2023/08/30 07:32:07;;;;;;;9.47;8.57;;;;;;;;;;5029960;28;20321;-89
2023/08/30 07:34:35;;;;;;;9.50;8.10;;;;;;;;;;5039921;28;20215;-89
2023/08/30 07:37:02;;;;;;;9.73;8.40;;;;;;;;;;5050215;28;20236;-88
2023/08/30 07:39:29;;;;;;;9.00;8.20;;;;;;;;;;5042366;28;20316;-88
2023/08/30 07:41:56;;;;;;;11.17;7.83;;;;;;;;;;5041337;28;20612;-88
2023/08/30 07:44:25;;;;;;;8.30;7.47;;;;;;;;;;5043764;28;20217;-89
2023/08/30 07:46:52;;;;;;;8.60;7.50;;;;;;;;;;5038230;28;20235;-88
2023/08/30 07:49:20;;;;;;;9.40;7.77;;;;;;;;;;5030458;28;20229;-89
2023/08/30 07:51:47;;;;;;;8.77;7.90;;;;;;;;;;5044703;28;20230;-89
2023/08/30 07:54:14;;;;;;;8.10;7.30;;;;;;;;;;5030566;28;20199;-89
2023/08/30 07:56:41;;;;;;;8.73;7.83;;;;;;;;;;5039807;28;20241;-88
2023/08/30 07:59:08;;;;;;;8.57;7.67;;;;;;;;;;5037577;28;20237;-88
2023/08/30 08:01:36;;;;;;;7.83;7.10;;;;;;;;;;5046330;28;20252;-89
2023/08/30 08:04:03;;;;;;;9.80;7.87;;;;;;;;;;5043183;28;20225;-89
2023/08/30 08:06:30;;;;;;;8.57;7.70;;;;;;;;;;5042226;28;20706;-89
2023/08/30 08:08:58;;;;;;;8.27;7.47;;;;;;;;;;5046396;28;20213;-90
2023/08/30 08:11:25;;;;;;;10.65;7.55;;;;;;;;;;5054175;28;20221;-90
2023/08/30 08:13:52;;;;;;;9.98;7.50;;;;;;;;;;5037999;28;20207;-89
2023/08/30 08:16:19;;;;;;;9.05;8.15;;;;;;;;;;5054385;28;20230;-89
2023/08/30 08:18:51;;;;;;;7.30;6.60;;;;;;;;;;5044861;28;20301;-89
2023/08/30 08:21:18;;;;;;;7.80;7.00;;;;;;;;;;5040388;28;20316;-91
2023/08/30 08:23:49;;;;;;;7.30;6.63;;;;;;;;;;5044444;28;20213;-90
2023/08/30 08:26:16;;;;;;;8.20;7.07;;;;;;;;;;5039892;28;20226;-90
2023/08/30 08:28:43;;;;;;;8.45;6.35;;;;;;;;;;5054063;28;20695;-92
2023/08/30 08:31:10;;;;;;;7.13;6.28;;;;;;;;;;5053812;28;20441;-94
2023/08/30 08:33:38;;;;;;;6.30;5.65;;;;;;;;;;5045789;28;20209;-92
2023/08/30 08:36:06;;;;;;;6.22;5.55;;;;;;;;;;5049097;28;20226;-91
2023/08/30 08:38:34;;;;;;;6.53;5.32;;;;;;;;;;5042714;28;20210;-93
2023/08/30 08:41:03;;;;;;;5.85;5.03;;;;;;;;;;5041665;28;20234;-91
2023/08/30 08:43:30;;;;;;;5.32;4.82;;;;;;;;;;5033968;28;20210;-92
2023/08/30 08:45:59;;;;;;;6.88;5.45;;;;;;;;;;5049626;28;20238;-92
2023/08/30 08:48:27;;;;;;;5.68;5.10;;;;;;;;;;5041675;28;20218;-90
2023/08/30 08:50:54;;;;;;;6.07;5.47;;;;;;;;;;5036518;28;20234;-91
2023/08/30 08:53:23;;;;;;;5.88;5.30;;;;;;;;;;5045533;28;20202;-90
2023/08/30 08:55:50;;;;;;;5.55;5.05;;;;;;;;;;5042371;28;20728;-90
2023/08/30 08:58:17;;;;;;;5.57;4.88;;;;;;;;;;5045097;28;20206;-90
2023/08/30 09:00:44;;;;;;;4.78;4.38;;;;;;;;;;5052503;28;20248;-93
2023/08/30 09:03:12;;;;;;;4.93;4.47;;;;;;;;;;5039663;28;20202;-93
2023/08/30 09:05:39;;;;;;;4.85;4.43;;;;;;;;;;5033551;28;20713;-90
2023/08/30 09:08:07;;;;;;;5.22;4.55;;;;;;;;;;5049364;28;20211;-91
2023/08/30 09:10:36;;;;;;;5.20;4.60;;;;;;;;;;5040708;28;20226;-90
2023/08/30 09:13:03;;;;;;;5.88;5.07;;;;;;;;;;5045171;28;20206;-91
2023/08/30 09:15:33;;;;;;;5.18;4.70;;;;;;;;;;5036418;28;20626;-91
2023/08/30 09:18:00;;;;;;;5.43;4.90;;;;;;;;;;5049509;28;20213;-90
2023/08/30 09:20:27;;;;;;;8.95;4.90;;;;;;;;;;5039328;28;20238;-88
2023/08/30 09:22:54;;;;;;;5.40;4.90;;;;;;;;;;5046952;28;20227;-89
2023/08/30 09:25:25;;;;;;;4.93;4.28;;;;;;;;;;5038213;28;20230;-90
2023/08/30 09:27:58;;;;;;;4.63;4.22;;;;;;;;;;5047506;28;20260;-91
2023/08/30 09:30:26;;;;;;;5.05;4.20;;;;;;;;;;5040650;28;20235;-90
2023/08/30 09:32:53;;;;;;;4.28;3.92;;;;;;;;;;5043184;28;20213;-91
2023/08/30 09:35:20;;;;;;;4.70;3.70;;;;;;;;;;5048129;28;20692;-91
2023/08/30 09:37:48;;;;;;;4.03;3.40;;;;;;;;;;5034035;28;20215;-87
2023/08/30 09:40:20;;;;;;;5.53;3.78;;;;;;;;;;5050236;28;20230;-86
2023/08/30 09:42:47;;;;;;;4.30;3.90;;;;;;;;;;5044500;28;20273;-86
2023/08/30 09:45:23;;;;;;;4.60;4.20;;;;;;;;;;5052338;28;20213;-87
2023/08/30 09:47:51;;;;;;;4.45;4.05;;;;;;;;;;5043045;28;20582;-90
2023/08/30 09:50:18;;;;;;;7.20;4.30;;;;;;;;;;5045644;28;20234;-91
2023/08/30 09:52:46;;;;;;;4.90;4.22;;;;;;;;;;5043269;28;20207;-91
2023/08/30 09:55:13;;;;;;;7.05;4.45;;;;;;;;;;5036860;28;20273;-89
2023/08/30 09:57:41;;;;;;;4.32;4.00;;;;;;;;;;5035866;28;20217;-91
2023/08/30 10:00:09;;;;;;;4.82;4.43;;;;;;;;;;5043548;28;20236;-90
2023/08/30 10:02:37;;;;;;;4.50;4.10;;;;;;;;;;5044406;28;20214;-90
2023/08/30 10:05:05;;;;;;;3.90;3.60;;;;;;;;;;5042581;28;20238;-90
2023/08/30 10:07:32;;;;;;;4.88;4.40;;;;;;;;;;5067251;22;20230;-85
2023/08/30 10:10:00;;;;;;;4.60;4.15;;;;;;;;;;5032845;28;20694;-84
2023/08/30 10:12:27;;;;;;;5.05;4.60;;;;;;;;;;5041561;28;20207;-84
2023/08/30 10:14:54;;;;;;;5.47;4.25;;;;;;;;;;5041450;28;20555;-84
2023/08/30 10:17:22;;;;;;;4.20;3.78;;;;;;;;;;5022655;28;20607;-84
2023/08/30 10:19:52;;;;;;;3.80;3.50;;;;;;;;;;5032562;28;20211;-84
2023/08/30 10:22:19;;;;;;;4.38;3.60;;;;;;;;;;5026178;28;20219;-84
2023/08/30 10:24:48;;;;;;;3.65;3.00;;;;;;;;;;5022188;28;20211;-85
2023/08/30 10:27:16;;;;;;;3.40;3.10;;;;;;;;;;5016880;28;20231;-85
2023/08/30 10:29:45;;;;;;;3.63;3.30;;;;;;;;;;5012053;28;20203;-84
2023/08/30 10:32:12;;;;;;;3.90;3.60;;;;;;;;;;5014949;28;20220;-85
2023/08/30 10:34:39;;;;;;;3.47;3.17;;;;;;;;;;5009178;28;20215;-85
2023/08/30 10:37:10;;;;;;;3.40;3.10;;;;;;;;;;5023757;28;20230;-85
2023/08/30 10:39:37;;;;;;;3.90;2.80;;;;;;;;;;5026347;28;20223;-83
2023/08/30 10:42:09;;;;;;;2.83;2.50;;;;;;;;;;5029375;28;20239;-84
2023/08/30 10:44:36;;;;;;;4.82;2.72;;;;;;;;;;5021580;28;20237;-84
2023/08/30 10:47:04;;;;;;;2.88;2.45;;;;;;;;;;5023251;28;20608;-85
2023/08/30 10:49:40;;;;;;;3.47;2.40;;;;;;;;;;5036488;28;20568;-84
2023/08/30 10:52:13;;;;;;;2.92;2.67;;;;;;;;;;5031273;28;20226;-84
2023/08/30 10:54:40;;;;;;;3.65;3.08;;;;;;;;;;5023769;28;20211;-85
2023/08/30 10:57:14;;;;;;;2.83;2.63;;;;;;;;;;5013729;28;20239;-84
2023/08/30 10:59:41;;;;;;;3.40;2.78;;;;;;;;;;5029681;28;20616;-86
2023/08/30 11:02:08;;;;;;;3.22;2.60;;;;;;;;;;5017206;28;20243;-85
2023/08/30 11:04:42;;;;;;;2.83;2.63;;;;;;;;;;5039591;28;20731;-83
2023/08/30 11:07:11;;;;;;;2.60;2.40;;;;;;;;;;5006197;28;20235;-83
2023/08/30 11:09:41;;;;;;;2.58;2.30;;;;;;;;;;5011937;28;20218;-83
2023/08/30 11:12:09;;;;;;;3.97;2.50;;;;;;;;;;5019013;28;20230;-83
2023/08/30 11:14:42;;;;;;;2.65;2.40;;;;;;;;;;5027439;28;20217;-83
2023/08/30 11:17:11;;;;;;;3.33;2.40;;;;;;;;;;5002854;28;20223;-83
2023/08/30 11:19:38;;;;;;;2.15;2.00;;;;;;;;;;5027314;28;20198;-83
2023/08/30 11:22:05;;;;;;;2.05;1.92;;;;;;;;;;5013859;28;20235;-83
2023/08/30 11:24:35;;;;;;;2.00;1.80;;;;;;;;;;5024574;28;20217;-84
2023/08/30 11:27:03;;;;;;;2.42;2.10;;;;;;;;;;5002180;28;20262;-85
2023/08/30 11:29:30;;;;;;;1.92;1.80;;;;;;;;;;5021881;28;20206;-84
2023/08/30 11:31:57;;;;;;;1.60;1.50;;;;;;;;;;5011708;28;20315;-84
2023/08/30 11:34:24;;;;;;;2.35;1.80;;;;;;;;;;5011351;28;20207;-85
2023/08/30 11:36:52;;;;;;;2.00;1.83;;;;;;;;;;5018265;28;20238;-84
2023/08/30 11:39:19;;;;;;;2.05;1.85;;;;;;;;;;5015456;28;20206;-84
2023/08/30 11:41:48;;;;;;;2.08;1.92;;;;;;;;;;5029745;28;20235;-85
2023/08/30 11:44:16;;;;;;;2.40;2.20;;;;;;;;;;5025282;28;20744;-84
2023/08/30 11:46:43;;;;;;;2.47;1.98;;;;;;;;;;5023110;28;20246;-84
2023/08/30 11:49:10;;;;;;;3.08;2.30;;;;;;;;;;5014044;28;20206;-84
2023/08/30 11:51:38;;;;;;;1.95;1.85;;;;;;;;;;5030124;28;20237;-84
2023/08/30 11:54:06;;;;;;;3.60;1.80;;;;;;;;;;5022540;28;20211;-83
2023/08/30 11:56:35;;;;;;;3.10;1.98;;;;;;;;;;5024433;28;20230;-82
2023/08/30 11:59:04;;;;;;;2.50;2.00;;;;;;;;;;5010919;28;20214;-85
2023/08/30 12:01:31;;;;;;;1.90;1.80;;;;;;;;;;5024846;28;20230;-84
2023/08/30 12:03:58;;;;;;;2.20;2.00;;;;;;;;;;5028657;28;20218;-84
2023/08/30 12:06:25;;;;;;;3.28;1.88;;;;;;;;;;5016030;28;20241;-84
2023/08/30 12:08:58;;;;;;;2.65;2.05;;;;;;;;;;5019984;28;20207;-85
2023/08/30 12:11:25;;;;;;;2.13;1.77;;;;;;;;;;5015511;28;20223;-83
2023/08/30 12:13:52;;;;;;;3.90;1.92;;;;;;;;;;5022837;28;20585;-85
2023/08/30 12:16:21;;;;;;;2.38;2.10;;;;;;;;;;5026336;28;20232;-84
2023/08/30 12:18:48;;;;;;;2.03;1.75;;;;;;;;;;5010317;28;20224;-85
2023/08/30 12:21:16;;;;;;;1.80;1.70;;;;;;;;;;5010376;28;20232;-84
2023/08/30 12:23:43;;;;;;;2.35;1.85;;;;;;;;;;5026321;28;20207;-85
2023/08/30 12:26:11;;;;;;;2.55;1.88;;;;;;;;;;5030484;28;20608;-86
2023/08/30 12:28:39;;;;;;;3.90;1.88;;;;;;;;;;5022979;28;20221;-84
2023/08/30 12:31:06;;;;;;;2.35;2.10;;;;;;;;;;5012507;28;20594;-83
2023/08/30 12:33:35;;;;;;;2.58;2.03;;;;;;;;;;5022537;28;20578;-82
2023/08/30 12:36:03;;;;;;;3.35;1.83;;;;;;;;;;5021433;28;20251;-83
2023/08/30 12:38:31;;;;;;;2.38;1.92;;;;;;;;;;5025075;28;20273;-84
2023/08/30 12:40:58;;;;;;;1.80;1.70;;;;;;;;;;5019794;28;20322;-84
2023/08/30 12:43:25;;;;;;;3.45;1.98;;;;;;;;;;5024348;28;20213;-84
2023/08/30 12:45:52;;;;;;;1.95;1.85;;;;;;;;;;5019941;28;20235;-84
2023/08/30 12:48:19;;;;;;;2.10;1.90;;;;;;;;;;5026735;28;20210;-84
2023/08/30 12:50:48;;;;;;;2.20;2.00;;;;;;;;;;5029933;28;20309;-84
2023/08/30 12:53:17;;;;;;;1.63;1.52;;;;;;;;;;5023067;28;20203;-83
2023/08/30 12:55:44;;;;;;;3.28;1.90;;;;;;;;;;5013924;28;20258;-83
2023/08/30 12:58:13;;;;;;;2.03;1.80;;;;;;;;;;5015071;28;20208;-83
2023/08/30 13:00:40;;;;;;;1.85;1.75;;;;;;;;;;5014963;28;20326;-84
2023/08/30 13:03:08;;;;;;;1.92;1.83;;;;;;;;;;5020110;28;20293;-83
2023/08/30 13:05:36;;;;;;;2.25;1.75;;;;;;;;;;5015350;28;20239;-85
2023/08/30 13:08:04;;;;;;;2.30;2.10;;;;;;;;;;5026767;28;20302;-83
2023/08/30 13:10:31;;;;;;;4.18;2.30;;;;;;;;;;5034337;28;20230;-83
2023/08/30 13:12:58;;;;;;;2.10;1.70;;;;;;;;;;5034948;28;20202;-85
2023/08/30 13:15:25;;;;;;;1.80;1.70;;;;;;;;;;5029487;28;20235;-83
2023/08/30 13:17:53;;;;;;;1.80;1.70;;;;;;;;;;5014714;28;20227;-85
2023/08/30 13:20:20;;;;;;;2.25;2.05;;;;;;;;;;5014565;28;20231;-85
2023/08/30 13:22:47;;;;;;;2.00;1.90;;;;;;;;;;5022394;28;20226;-85
2023/08/30 13:25:16;;;;;;;1.95;1.80;;;;;;;;;;5025812;28;20253;-83
2023/08/30 13:27:43;;;;;;;2.00;1.85;;;;;;;;;;5035304;28;20238;-84
2023/08/30 13:30:10;;;;;;;1.30;1.30;;;;;;;;;;5017008;28;20196;-83
2023/08/30 13:32:37;;;;;;;2.30;1.63;;;;;;;;;;5034636;28;20207;-84
2023/08/30 13:35:04;;;;;;;1.63;1.52;;;;;;;;;;5015222;28;20629;-83
2023/08/30 13:37:31;;;;;;;3.55;2.53;;;;;;;;;;5014298;28;20230;-83
2023/08/30 13:39:58;;;;;;;2.67;2.10;;;;;;;;;;5013867;28;20211;-84
2023/08/30 13:42:27;;;;;;;4.13;1.90;;;;;;;;;;5014421;28;20246;-84
2023/08/30 13:44:54;;;;;;;2.15;1.92;;;;;;;;;;5031139;28;20206;-85
2023/08/30 13:47:21;;;;;;;2.65;2.20;;;;;;;;;;5021488;28;20294;-84
2023/08/30 13:49:48;;;;;;;2.72;2.28;;;;;;;;;;5014753;28;20244;-83
2023/08/30 13:52:15;;;;;;;2.25;1.90;;;;;;;;;;5013573;28;20231;-83
2023/08/30 13:54:42;;;;;;;3.75;2.30;;;;;;;;;;5014504;28;20211;-83
2023/08/30 13:57:09;;;;;;;2.78;2.53;;;;;;;;;;5024203;28;20688;-84
2023/08/30 13:59:38;;;;;;;3.92;2.38;;;;;;;;;;5025784;28;20210;-84
2023/08/30 14:02:05;;;;;;;4.15;2.45;;;;;;;;;;5033014;28;20235;-83
2023/08/30 14:04:33;;;;;;;2.63;2.03;;;;;;;;;;5033927;28;20213;-84
2023/08/30 14:07:01;;;;;;;2.85;2.30;;;;;;;;;;5016815;28;20723;-83
2023/08/30 14:09:28;;;;;;;3.05;2.08;;;;;;;;;;5015457;28;20215;-85
2023/08/30 14:11:55;;;;;;;5.82;2.53;;;;;;;;;;5013698;28;20226;-84
2023/08/30 14:14:22;;;;;;;2.92;2.05;;;;;;;;;;5017243;28;20298;-84
2023/08/30 14:16:51;;;;;;;2.33;2.13;;;;;;;;;;5016604;28;20232;-83
2023/08/30 14:19:18;;;;;;;3.58;2.45;;;;;;;;;;5013094;28;20215;-82
2023/08/30 14:21:45;;;;;;;4.00;2.42;;;;;;;;;;5019610;28;20258;-84
2023/08/30 14:24:12;;;;;;;2.63;2.42;;;;;;;;;;5030268;28;20214;-83
2023/08/30 14:26:40;;;;;;;2.80;2.42;;;;;;;;;;5012716;28;20314;-83
2023/08/30 14:29:07;;;;;;;2.10;1.88;;;;;;;;;;5031051;28;20218;-84
2023/08/30 14:31:34;;;;;;;2.30;2.10;;;;;;;;;;5032099;28;20226;-84
2023/08/30 14:34:02;;;;;;;2.40;2.20;;;;;;;;;;5015845;28;20207;-84
2023/08/30 14:36:29;;;;;;;4.03;2.55;;;;;;;;;;5020575;28;20247;-84
2023/08/30 14:38:56;;;;;;;2.38;2.20;;;;;;;;;;5029330;28;20207;-83
2023/08/30 14:41:23;;;;;;;2.65;2.45;;;;;;;;;;5031595;28;20233;-82
2023/08/30 14:43:50;;;;;;;2.25;2.10;;;;;;;;;;5032889;28;20210;-83
2023/08/30 14:46:19;;;;;;;4.85;2.60;;;;;;;;;;5012431;28;20231;-82